createdAt,value
2017-05-31T00:00:42.884Z,90.60
2017-05-31T00:03:10.073Z,90.70
2017-05-31T00:05:37.380Z,91.10
2017-05-31T00:08:04.589Z,91.30
2017-05-31T00:10:31.854Z,91.40
2017-05-31T00:12:59.096Z,91.60
2017-05-31T00:15:26.460Z,91.50
2017-05-31T00:17:53.740Z,91.60
2017-05-31T00:20:21.003Z,91.70
2017-05-31T00:22:47.467Z,91.70
2017-05-31T00:25:14.803Z,91.80
2017-05-31T00:27:42.392Z,91.90
2017-05-31T00:30:09.688Z,92.00
2017-05-31T00:32:36.998Z,92.10
2017-05-31T00:35:03.732Z,92.10
2017-05-31T00:37:30.936Z,92.40
2017-05-31T00:39:58.234Z,92.50
2017-05-31T00:42:24.767Z,92.50
2017-05-31T00:44:51.988Z,92.70
2017-05-31T00:47:18.541Z,92.70
2017-05-31T00:49:45.849Z,93.20
2017-05-31T00:52:13.112Z,93.30
2017-05-31T00:54:40.531Z,93.50
2017-05-31T00:57:07.755Z,93.90
2017-05-31T00:59:35.076Z,94.40
2017-05-31T01:02:01.564Z,94.40
2017-05-31T01:04:28.998Z,94.60
2017-05-31T01:06:56.244Z,95.10
2017-05-31T01:09:23.446Z,94.80
2017-05-31T01:11:50.668Z,95.00
2017-05-31T01:14:18.000Z,94.90
2017-05-31T01:16:45.191Z,95.00
2017-05-31T01:19:12.405Z,95.30
2017-05-31T01:21:38.880Z,95.30
2017-05-31T01:24:06.169Z,95.60
2017-05-31T01:26:33.545Z,95.80
2017-05-31T01:29:00.000Z,95.80
2017-05-31T01:31:27.188Z,95.90
2017-05-31T01:33:54.604Z,95.90
2017-05-31T01:36:21.812Z,95.90
2017-05-31T01:38:48.984Z,96.00
2017-05-31T01:41:16.231Z,96.50
2017-05-31T01:43:43.379Z,96.30
2017-05-31T01:46:10.592Z,96.40
2017-05-31T01:48:37.791Z,96.30
2017-05-31T01:51:04.994Z,96.30
2017-05-31T01:53:32.259Z,96.20
2017-05-31T01:55:59.568Z,96.10
2017-05-31T01:58:26.802Z,96.00
2017-05-31T02:00:54.346Z,96.00
2017-05-31T02:03:21.494Z,96.30
2017-05-31T02:05:48.651Z,96.30
2017-05-31T02:08:15.894Z,96.30
2017-05-31T02:10:43.083Z,96.30
2017-05-31T02:13:10.297Z,96.40
2017-05-31T02:15:37.520Z,96.40
2017-05-31T02:18:04.751Z,96.60
2017-05-31T02:20:31.955Z,96.60
2017-05-31T02:22:59.287Z,96.70
2017-05-31T02:25:26.568Z,96.80
2017-05-31T02:27:53.733Z,97.00
2017-05-31T02:30:20.912Z,97.20
2017-05-31T02:32:48.100Z,97.60
2017-05-31T02:35:15.304Z,97.40
2017-05-31T02:37:42.487Z,97.40
2017-05-31T02:40:09.728Z,97.30
2017-05-31T02:42:36.904Z,97.20
2017-05-31T02:45:04.135Z,97.00
2017-05-31T02:47:31.333Z,96.80
2017-05-31T02:49:58.538Z,96.60
2017-05-31T02:52:25.810Z,96.30
2017-05-31T02:54:53.058Z,96.40
2017-05-31T02:57:20.253Z,96.40
2017-05-31T02:59:47.467Z,96.50
2017-05-31T03:02:14.713Z,96.50
2017-05-31T03:04:41.875Z,96.60
2017-05-31T03:07:09.072Z,96.70
2017-05-31T03:09:36.284Z,97.00
2017-05-31T03:12:03.457Z,96.70
2017-05-31T03:14:30.693Z,96.80
2017-05-31T03:16:57.915Z,96.70
2017-05-31T03:19:25.072Z,96.60
2017-05-31T03:21:52.239Z,96.70
2017-05-31T03:24:19.427Z,96.70
2017-05-31T03:26:46.620Z,96.80
2017-05-31T03:29:13.862Z,97.00
2017-05-31T03:31:41.130Z,97.20
2017-05-31T03:34:08.280Z,97.30
2017-05-31T03:36:35.515Z,97.30
2017-05-31T03:39:02.751Z,97.30
2017-05-31T03:41:29.948Z,97.30
2017-05-31T03:43:57.171Z,97.20
2017-05-31T03:46:24.344Z,97.30
2017-05-31T03:48:51.578Z,97.30
2017-05-31T03:51:18.779Z,97.40
2017-05-31T03:53:45.967Z,97.50
2017-05-31T03:56:13.180Z,97.60
2017-05-31T03:58:40.399Z,97.70
2017-05-31T04:01:07.601Z,97.80
2017-05-31T04:03:34.920Z,97.60
2017-05-31T04:06:02.292Z,97.50
2017-05-31T04:08:29.479Z,97.40
2017-05-31T04:10:56.765Z,97.40
2017-05-31T04:13:23.980Z,97.20
2017-05-31T04:15:51.207Z,97.10
2017-05-31T04:18:18.644Z,97.00
2017-05-31T04:20:45.823Z,96.80
2017-05-31T04:23:13.150Z,96.60
2017-05-31T04:25:40.420Z,96.80
2017-05-31T04:28:07.611Z,96.30
2017-05-31T04:30:34.877Z,96.20
2017-05-31T04:33:02.211Z,96.00
2017-05-31T04:35:29.387Z,95.80
2017-05-31T04:37:56.885Z,95.40
2017-05-31T04:40:24.091Z,95.30
2017-05-31T04:42:51.301Z,95.20
2017-05-31T04:45:18.527Z,95.20
2017-05-31T04:47:45.699Z,95.30
2017-05-31T04:50:12.892Z,95.10
2017-05-31T04:52:40.103Z,95.00
2017-05-31T04:55:07.280Z,94.70
2017-05-31T04:57:34.505Z,94.50
2017-05-31T05:00:01.735Z,94.60
2017-05-31T05:02:28.955Z,94.40
2017-05-31T05:04:56.201Z,94.00
2017-05-31T05:07:23.461Z,94.40
2017-05-31T05:09:50.627Z,94.50
2017-05-31T05:12:17.914Z,94.70
2017-05-31T05:14:45.177Z,94.70
2017-05-31T05:17:12.472Z,94.50
2017-05-31T05:19:39.692Z,94.50
2017-05-31T05:22:06.891Z,94.50
2017-05-31T05:24:34.125Z,94.50
2017-05-31T05:27:01.430Z,94.20
2017-05-31T05:29:28.701Z,93.90
2017-05-31T05:31:56.003Z,93.40
2017-05-31T05:34:23.355Z,92.80
2017-05-31T05:36:50.539Z,92.30
2017-05-31T05:39:17.708Z,92.30
2017-05-31T05:41:45.034Z,92.10
2017-05-31T05:44:12.260Z,91.90
2017-05-31T05:46:39.540Z,91.40
2017-05-31T05:49:06.751Z,91.40
2017-05-31T05:51:33.943Z,91.00
2017-05-31T05:54:01.194Z,90.20
2017-05-31T05:56:28.398Z,90.30
2017-05-31T05:58:55.679Z,90.40
2017-05-31T06:01:22.883Z,90.30
2017-05-31T06:03:50.190Z,89.80
2017-05-31T06:06:17.391Z,89.00
2017-05-31T06:08:44.699Z,88.20
2017-05-31T06:11:11.964Z,87.00
2017-05-31T06:13:39.201Z,86.10
2017-05-31T06:16:06.441Z,85.60
2017-05-31T06:18:33.626Z,85.50
2017-05-31T06:21:00.800Z,84.90
2017-05-31T06:23:28.104Z,84.00
2017-05-31T06:25:55.342Z,84.70
2017-05-31T06:28:22.526Z,83.60
2017-05-31T06:30:49.811Z,83.00
2017-05-31T06:33:17.029Z,84.60
2017-05-31T06:35:44.212Z,84.60
2017-05-31T06:38:11.463Z,84.00
2017-05-31T06:40:38.639Z,84.20
2017-05-31T06:43:05.864Z,84.10
2017-05-31T06:45:33.159Z,84.90
2017-05-31T06:48:00.363Z,84.80
2017-05-31T06:50:27.559Z,83.20
2017-05-31T06:52:54.820Z,82.00
2017-05-31T06:55:21.979Z,82.20
2017-05-31T06:57:49.213Z,83.20
2017-05-31T07:00:16.466Z,81.10
2017-05-31T07:02:43.680Z,79.50
2017-05-31T07:05:10.883Z,80.40
2017-05-31T07:07:38.104Z,80.20
2017-05-31T07:10:05.269Z,80.00
2017-05-31T07:12:32.495Z,80.50
2017-05-31T07:14:59.674Z,82.20
2017-05-31T07:17:26.855Z,83.30
2017-05-31T07:19:54.136Z,82.90
2017-05-31T07:22:21.371Z,82.70
2017-05-31T07:24:49.311Z,84.00
2017-05-31T07:27:16.629Z,83.80
2017-05-31T07:29:43.764Z,81.10
2017-05-31T07:32:11.264Z,77.70
2017-05-31T07:34:38.623Z,68.90
2017-05-31T07:37:05.828Z,62.70
2017-05-31T07:39:33.223Z,58.00
2017-05-31T07:42:00.437Z,57.80
2017-05-31T07:44:27.664Z,58.70
2017-05-31T07:46:54.929Z,63.10
2017-05-31T07:49:22.136Z,66.00
2017-05-31T07:51:49.577Z,59.80
2017-05-31T07:54:16.807Z,61.50
2017-05-31T07:56:43.992Z,62.00
2017-05-31T07:59:11.225Z,60.90
2017-05-31T08:01:38.455Z,59.90
2017-05-31T08:04:05.706Z,63.20
2017-05-31T08:06:33.026Z,60.10
2017-05-31T08:09:00.214Z,60.90
2017-05-31T08:11:27.525Z,62.20
2017-05-31T08:13:54.989Z,65.30
2017-05-31T08:16:22.273Z,65.80
2017-05-31T08:18:49.584Z,67.90
2017-05-31T08:21:16.900Z,68.90
2017-05-31T08:23:43.331Z,68.90
2017-05-31T08:26:10.605Z,64.60
2017-05-31T08:28:37.804Z,64.40
2017-05-31T08:31:05.057Z,66.50
2017-05-31T08:33:32.230Z,66.70
2017-05-31T08:35:59.527Z,66.10
2017-05-31T08:38:26.892Z,65.00
2017-05-31T08:40:54.094Z,61.90
2017-05-31T08:43:20.536Z,61.80
2017-05-31T08:45:47.776Z,63.90
2017-05-31T08:48:14.969Z,64.90
2017-05-31T08:50:57.035Z,65.00
2017-05-31T08:53:24.249Z,64.30
2017-05-31T08:55:51.446Z,60.30
2017-05-31T08:58:18.681Z,57.70
2017-05-31T09:00:45.861Z,54.70
2017-05-31T09:03:13.311Z,54.90
2017-05-31T09:05:40.632Z,56.10
2017-05-31T09:08:07.920Z,58.40
2017-05-31T09:10:35.109Z,58.20
2017-05-31T09:13:02.323Z,60.60
2017-05-31T09:15:29.544Z,59.50
2017-05-31T09:17:56.809Z,57.20
2017-05-31T09:20:24.100Z,53.20
2017-05-31T09:22:51.259Z,54.20
2017-05-31T09:25:18.461Z,56.50
2017-05-31T09:27:45.697Z,57.10
2017-05-31T09:30:12.981Z,56.10
2017-05-31T09:32:40.194Z,56.20
2017-05-31T09:35:07.419Z,56.80
2017-05-31T09:37:34.781Z,56.40
2017-05-31T09:40:01.990Z,58.80
2017-05-31T09:42:29.204Z,58.10
2017-05-31T09:44:56.594Z,58.30
2017-05-31T09:47:23.797Z,57.40
2017-05-31T09:49:51.119Z,54.30
2017-05-31T09:52:19.295Z,52.60
2017-05-31T09:54:46.537Z,52.80
2017-05-31T09:57:13.749Z,53.80
2017-05-31T09:59:40.947Z,55.70
2017-05-31T10:02:08.155Z,55.60
2017-05-31T10:04:35.381Z,55.20
2017-05-31T10:07:02.559Z,52.20
2017-05-31T10:09:29.782Z,49.20
2017-05-31T10:11:56.969Z,49.10
2017-05-31T10:14:24.197Z,50.50
2017-05-31T10:16:51.435Z,49.10
2017-05-31T10:19:18.608Z,49.90
2017-05-31T10:21:45.825Z,48.80
2017-05-31T10:24:13.077Z,49.00
2017-05-31T10:26:40.348Z,49.70
2017-05-31T10:29:07.616Z,49.20
2017-05-31T10:31:34.879Z,50.90
2017-05-31T10:34:02.070Z,50.70
2017-05-31T10:36:29.323Z,49.00
2017-05-31T10:38:56.492Z,48.50
2017-05-31T10:41:23.713Z,46.30
2017-05-31T10:43:51.098Z,48.30
2017-05-31T10:46:18.332Z,48.40
2017-05-31T10:48:45.521Z,48.40
2017-05-31T10:51:12.864Z,47.20
2017-05-31T10:53:40.048Z,47.10
2017-05-31T10:56:07.282Z,47.40
2017-05-31T10:58:34.667Z,46.90
2017-05-31T11:01:01.861Z,47.80
2017-05-31T11:03:29.200Z,47.70
2017-05-31T11:05:58.472Z,46.60
2017-05-31T11:08:25.724Z,47.30
2017-05-31T11:10:53.012Z,48.50
2017-05-31T11:13:20.165Z,49.40
2017-05-31T11:15:47.418Z,49.40
2017-05-31T11:18:14.769Z,48.70
2017-05-31T11:20:42.021Z,46.50
2017-05-31T11:23:09.240Z,47.00
2017-05-31T11:25:36.568Z,47.20
2017-05-31T11:28:03.763Z,49.40
2017-05-31T11:30:31.080Z,49.90
2017-05-31T11:32:58.307Z,48.60
2017-05-31T11:35:25.569Z,48.40
2017-05-31T11:37:52.760Z,46.30
2017-05-31T11:40:20.037Z,43.60
2017-05-31T11:42:47.383Z,45.00
2017-05-31T11:45:14.761Z,46.20
2017-05-31T11:47:41.967Z,46.40
2017-05-31T11:50:09.303Z,46.40
2017-05-31T11:52:37.024Z,46.00
2017-05-31T11:55:04.261Z,45.10
2017-05-31T11:57:31.512Z,43.50
2017-05-31T11:59:58.868Z,41.20
2017-05-31T12:02:26.117Z,41.10
2017-05-31T12:04:53.351Z,40.80
2017-05-31T12:07:21.281Z,40.50
2017-05-31T12:09:49.339Z,39.90
2017-05-31T12:12:16.593Z,40.50
2017-05-31T12:14:43.828Z,40.50
2017-05-31T12:17:11.097Z,40.00
2017-05-31T12:19:38.310Z,40.50
2017-05-31T12:22:06.083Z,41.50
2017-05-31T12:24:33.291Z,42.90
2017-05-31T12:27:00.486Z,41.70
2017-05-31T12:29:27.706Z,39.10
2017-05-31T12:31:55.108Z,37.10
2017-05-31T12:34:22.288Z,36.20
2017-05-31T12:36:49.579Z,37.00
2017-05-31T12:39:16.835Z,35.00
2017-05-31T12:41:44.023Z,32.10
2017-05-31T12:44:11.361Z,33.70
2017-05-31T12:46:38.573Z,34.70
2017-05-31T12:49:05.756Z,32.40
2017-05-31T12:51:33.080Z,33.90
2017-05-31T12:54:00.323Z,35.60
2017-05-31T12:56:27.542Z,35.30
2017-05-31T12:58:54.875Z,35.60
2017-05-31T13:01:22.085Z,33.70
2017-05-31T13:03:49.376Z,30.00
2017-05-31T13:06:16.656Z,29.10
2017-05-31T13:08:43.891Z,30.10
2017-05-31T13:11:11.220Z,31.80
2017-05-31T13:13:38.458Z,29.90
2017-05-31T13:16:05.692Z,28.90
2017-05-31T13:18:32.904Z,29.30
2017-05-31T13:21:00.135Z,30.00
2017-05-31T13:23:27.420Z,31.00
2017-05-31T13:25:54.612Z,29.20
2017-05-31T13:28:21.824Z,28.60
2017-05-31T13:30:49.125Z,27.80
2017-05-31T13:33:16.369Z,28.10
2017-05-31T13:35:43.659Z,32.60
2017-05-31T13:38:11.189Z,31.60
2017-05-31T13:40:40.984Z,31.20
2017-05-31T13:43:08.181Z,30.50
2017-05-31T13:45:35.388Z,31.80
2017-05-31T13:48:02.685Z,32.90
2017-05-31T13:50:30.132Z,31.90
2017-05-31T13:52:57.454Z,34.90
2017-05-31T13:55:24.787Z,37.50
2017-05-31T13:57:52.010Z,40.10
2017-05-31T14:00:19.283Z,40.10
2017-05-31T14:02:46.636Z,38.50
2017-05-31T14:05:13.833Z,35.30
2017-05-31T14:07:41.096Z,31.80
2017-05-31T14:10:08.292Z,31.40
2017-05-31T14:15:29.676Z,32.60
2017-05-31T14:17:57.080Z,33.50
2017-05-31T14:20:24.396Z,31.50
2017-05-31T14:22:51.642Z,31.60
2017-05-31T14:25:19.028Z,34.30
2017-05-31T14:27:46.263Z,38.60
2017-05-31T14:30:13.502Z,42.20
2017-05-31T14:32:40.806Z,44.60
2017-05-31T14:35:08.098Z,45.40
2017-05-31T14:37:35.622Z,44.10
2017-05-31T14:40:02.893Z,39.60
2017-05-31T14:42:30.104Z,37.80
2017-05-31T14:44:57.409Z,36.10
2017-05-31T14:47:24.627Z,36.20
2017-05-31T14:49:51.817Z,33.80
2017-05-31T14:52:19.147Z,33.10
2017-05-31T14:54:46.399Z,33.50
2017-05-31T14:57:13.634Z,32.20
2017-05-31T14:59:41.020Z,31.40
2017-05-31T15:02:08.325Z,30.00
2017-05-31T15:04:35.610Z,31.10
2017-05-31T15:07:02.875Z,31.70
2017-05-31T15:09:30.164Z,29.40
2017-05-31T15:11:57.428Z,30.00
2017-05-31T15:14:24.673Z,32.80
2017-05-31T15:16:51.922Z,32.30
2017-05-31T15:19:19.382Z,32.60
2017-05-31T15:21:46.600Z,34.50
2017-05-31T15:24:13.830Z,35.50
2017-05-31T15:26:41.099Z,37.00
2017-05-31T15:29:08.368Z,36.90
2017-05-31T15:31:35.897Z,34.70
2017-05-31T15:34:03.152Z,35.30
2017-05-31T15:36:30.460Z,34.00
2017-05-31T15:38:57.888Z,36.30
2017-05-31T15:41:25.236Z,37.30
2017-05-31T15:43:52.471Z,37.90
2017-05-31T15:46:19.721Z,40.90
2017-05-31T15:48:47.161Z,42.50
2017-05-31T15:51:14.568Z,43.60
2017-05-31T15:53:41.863Z,43.60
2017-05-31T15:56:09.144Z,44.90
2017-05-31T15:58:36.489Z,46.10
2017-05-31T16:01:03.759Z,45.10
2017-05-31T16:03:31.084Z,44.90
2017-05-31T16:05:58.320Z,44.70
2017-05-31T16:08:25.581Z,44.80
2017-05-31T16:10:52.881Z,46.00
2017-05-31T16:13:20.151Z,45.70
2017-05-31T16:15:47.606Z,45.50
2017-05-31T16:18:14.886Z,44.80
2017-05-31T16:20:42.080Z,45.70
2017-05-31T16:23:09.332Z,45.30
2017-05-31T16:25:36.540Z,44.70
2017-05-31T16:28:03.732Z,42.70
2017-05-31T16:30:31.032Z,43.70
2017-05-31T16:32:58.294Z,42.90
2017-05-31T16:35:25.556Z,44.20
2017-05-31T16:37:52.816Z,44.30
2017-05-31T16:40:20.055Z,44.30
2017-05-31T16:42:47.327Z,44.30
2017-05-31T16:45:13.883Z,44.20
2017-05-31T16:47:40.383Z,44.00
2017-05-31T16:50:07.567Z,45.30
2017-05-31T16:52:34.843Z,45.00
2017-05-31T16:55:02.079Z,43.70
2017-05-31T16:57:29.408Z,43.00
2017-05-31T16:59:56.624Z,43.60
2017-05-31T17:02:23.811Z,43.80
2017-05-31T17:04:50.991Z,43.80
2017-05-31T17:07:18.213Z,43.70
2017-05-31T17:09:45.496Z,42.60
2017-05-31T17:12:12.765Z,43.70
2017-05-31T17:14:40.001Z,43.60
2017-05-31T17:17:07.324Z,44.30
2017-05-31T17:19:34.585Z,45.00
2017-05-31T17:22:01.844Z,45.10
2017-05-31T17:24:29.075Z,47.10
2017-05-31T17:26:56.286Z,47.70
2017-05-31T17:29:23.504Z,47.90
2017-05-31T17:31:50.725Z,48.20
2017-05-31T17:34:17.999Z,48.40
2017-05-31T17:36:45.188Z,48.60
2017-05-31T17:39:11.665Z,48.60
2017-05-31T17:41:38.124Z,47.90
2017-05-31T17:44:05.335Z,47.60
2017-05-31T17:46:32.561Z,48.60
2017-05-31T17:48:59.720Z,48.10
2017-05-31T17:51:26.898Z,47.70
2017-05-31T17:53:54.161Z,49.70
2017-05-31T17:56:21.842Z,49.20
2017-05-31T17:58:49.197Z,50.20
2017-05-31T18:01:16.480Z,51.20
2017-05-31T18:03:43.660Z,51.90
2017-05-31T18:06:10.961Z,52.90
2017-05-31T18:08:53.241Z,53.20
2017-05-31T18:11:20.492Z,54.70
2017-05-31T18:13:47.796Z,55.40
2017-05-31T18:16:15.067Z,55.10
2017-05-31T18:18:42.363Z,56.10
2017-05-31T18:21:09.596Z,55.70
2017-05-31T18:23:36.799Z,56.80
2017-05-31T18:26:04.104Z,56.40
2017-05-31T18:28:31.360Z,56.30
2017-05-31T18:30:58.599Z,57.50
2017-05-31T18:33:25.844Z,57.50
2017-05-31T18:35:53.260Z,57.90
2017-05-31T18:38:20.693Z,59.00
2017-05-31T18:40:47.945Z,58.70
2017-05-31T18:43:15.252Z,59.10
2017-05-31T18:45:42.497Z,59.10
2017-05-31T18:48:09.685Z,58.90
2017-05-31T18:50:36.996Z,59.40
2017-05-31T18:53:04.292Z,59.30
2017-05-31T18:55:31.524Z,59.60
2017-05-31T18:57:58.801Z,59.50
2017-05-31T19:00:26.049Z,59.40
2017-05-31T19:02:53.284Z,59.50
2017-05-31T19:05:20.589Z,59.70
2017-05-31T19:07:47.808Z,60.00
2017-05-31T19:10:15.261Z,60.20
2017-05-31T19:12:42.546Z,60.40
2017-05-31T19:15:09.774Z,60.70
2017-05-31T19:17:37.037Z,61.30
2017-05-31T19:20:04.221Z,62.00
2017-05-31T19:22:31.453Z,62.20
2017-05-31T19:24:58.695Z,62.70
2017-05-31T19:27:25.983Z,63.00
2017-05-31T19:29:53.424Z,63.30
2017-05-31T19:32:20.672Z,63.80
2017-05-31T19:34:47.948Z,64.80
2017-05-31T19:37:15.335Z,64.20
2017-05-31T19:39:42.600Z,64.20
2017-05-31T19:42:09.812Z,64.30
2017-05-31T19:44:37.131Z,64.90
2017-05-31T19:47:04.415Z,65.20
2017-05-31T19:49:31.688Z,65.70
2017-05-31T19:51:59.087Z,66.70
2017-05-31T19:54:27.622Z,66.80
2017-05-31T19:56:54.941Z,66.10
2017-05-31T19:59:22.244Z,66.30
2017-05-31T20:01:49.624Z,66.40
2017-05-31T20:04:16.893Z,66.20
2017-05-31T20:06:44.215Z,67.70
2017-05-31T20:09:11.531Z,67.60
2017-05-31T20:11:38.975Z,67.80
2017-05-31T20:14:07.056Z,68.10
2017-05-31T20:16:34.440Z,68.60
2017-05-31T20:19:02.683Z,68.80
2017-05-31T20:21:29.894Z,69.80
2017-05-31T20:23:57.207Z,70.60
2017-05-31T20:26:25.308Z,72.20
2017-05-31T20:28:52.599Z,72.70
2017-05-31T20:31:19.838Z,73.30
2017-05-31T20:33:47.170Z,74.00
2017-05-31T20:36:14.541Z,74.40
2017-05-31T20:38:41.814Z,74.40
2017-05-31T20:41:09.178Z,74.30
2017-05-31T20:43:36.410Z,74.30
2017-05-31T20:46:04.387Z,75.30
2017-05-31T20:48:31.662Z,74.90
2017-05-31T20:50:58.880Z,75.40
2017-05-31T20:53:26.152Z,75.70
2017-05-31T20:55:53.456Z,76.80
2017-05-31T20:58:20.896Z,76.80
2017-05-31T21:00:48.280Z,77.10
2017-05-31T21:03:14.941Z,77.10
2017-05-31T21:05:42.267Z,80.10
2017-05-31T21:08:09.592Z,79.40
2017-05-31T21:10:37.093Z,78.90
2017-05-31T21:13:04.355Z,78.60
2017-05-31T21:15:31.688Z,79.50
2017-05-31T21:17:59.084Z,79.20
2017-05-31T21:20:26.395Z,80.40
2017-05-31T21:22:53.709Z,81.00
2017-05-31T21:25:20.287Z,81.00
2017-05-31T21:27:47.013Z,80.50
2017-05-31T21:30:14.257Z,80.40
2017-05-31T21:32:40.793Z,80.40
2017-05-31T21:35:08.205Z,82.30
2017-05-31T21:37:35.485Z,83.60
2017-05-31T21:40:02.880Z,83.70
2017-05-31T21:42:30.148Z,83.70
2017-05-31T21:44:56.697Z,83.60
2017-05-31T21:47:23.975Z,82.70
2017-05-31T21:49:50.547Z,82.60
2017-05-31T21:52:17.740Z,84.60
2017-05-31T21:54:45.092Z,84.90
2017-05-31T21:57:12.490Z,85.00
2017-05-31T21:59:39.824Z,85.10
2017-05-31T22:02:07.163Z,85.10
2017-05-31T22:04:33.840Z,84.90
2017-05-31T22:07:00.425Z,85.80
2017-05-31T22:09:27.689Z,86.50
2017-05-31T22:11:54.291Z,86.50
2017-05-31T22:14:21.589Z,86.70
2017-05-31T22:16:48.171Z,86.90
2017-05-31T22:19:15.421Z,87.20
2017-05-31T22:21:43.007Z,87.50
2017-05-31T22:24:10.221Z,87.30
2017-05-31T22:26:37.476Z,87.10
2017-05-31T22:29:04.022Z,87.00
2017-05-31T22:31:31.292Z,87.70
2017-05-31T22:33:58.717Z,87.30
2017-05-31T22:36:25.449Z,87.40
2017-05-31T22:38:52.855Z,87.50
2017-05-31T22:41:20.121Z,87.40
2017-05-31T22:43:47.351Z,87.60
2017-05-31T22:46:14.718Z,88.30
2017-05-31T22:48:41.941Z,88.70
2017-05-31T22:51:09.185Z,89.30
2017-05-31T22:53:36.567Z,89.20
2017-05-31T22:56:03.798Z,89.80
2017-05-31T22:58:31.118Z,90.00
2017-05-31T23:00:58.324Z,89.90
2017-05-31T23:03:25.547Z,90.00
2017-05-31T23:05:52.795Z,90.10
2017-05-31T23:08:20.019Z,90.10
2017-05-31T23:10:47.280Z,90.60
2017-05-31T23:13:14.696Z,90.80
2017-05-31T23:15:42.005Z,91.10
2017-05-31T23:18:09.343Z,91.10
2017-05-31T23:20:37.433Z,91.00
2017-05-31T23:23:04.760Z,90.90
2017-05-31T23:25:32.006Z,91.00
2017-05-31T23:27:59.213Z,91.00
2017-05-31T23:30:26.445Z,91.00
2017-05-31T23:32:53.664Z,91.20
2017-05-31T23:35:21.011Z,91.40
2017-05-31T23:37:48.264Z,91.50
2017-05-31T23:40:15.484Z,91.90
2017-05-31T23:42:42.921Z,91.80
2017-05-31T23:45:10.150Z,92.00
2017-05-31T23:47:37.311Z,92.50
2017-05-31T23:50:04.633Z,91.90
2017-05-31T23:52:31.873Z,92.20
2017-05-31T23:54:59.275Z,92.30
2017-05-31T23:57:26.511Z,92.10
2017-05-31T23:59:53.737Z,92.10
